Gilboa, New York
Current Conditions -  °F | °C
As of 4:51 PM on Monday 22 Dec 2014 (Local Time) from KALB Reporting Station
Light Snow Light Snow  
Wind Chill: 31°   Ceiling: 4500
Heat Index: 35°   Visibility: 10mi
Dew Point: 27°   Wind: 5mph
Humidity: 72%   Direction: 40°NE
Pressure: 30.28"   Gusts: NA
Location:  42.4°N, 74.45°W
Report Text: KALB 222151Z 04004KT 10SM -SN FEW033 BKN045 OVC050 02/M03 A3028 RMK AO2 SNB50 SLP258 PCPN VRY LGT P0000 T00171028
Loading
Personal Weather Stations






























Interactive Weather Map New forecast layout! Learn more

10-Day Weather Forecast

Advertisements
Track Severe Weather on mobile